Time;durP1;ratioP1;P1;durP2;ratioP2;P2;SDS_P1;SDS_P2;PMS_P1;PMS_P2;Temp;Humidity;BMP_temperature;BMP_pressure;BME280_temperature;BME280_humidity;BME280_pressure;Samples;Min_cycle;Max_cycle;Signal;HPM_P1;HPM_P2
2022/03/21 00:01:13;;;;;;;11.35;7.55;;;;;;;;;;6291110;22;20003;-82
2022/03/21 00:03:39;;;;;;;11.98;7.40;;;;;;;;;;6318385;22;20018;-82
2022/03/21 00:06:06;;;;;;;13.50;7.97;;;;;;;;;;6318269;22;20022;-82
2022/03/21 00:08:32;;;;;;;10.90;7.50;;;;;;;;;;6317513;22;20003;-81
2022/03/21 00:10:58;;;;;;;11.80;7.43;;;;;;;;;;6289548;22;20010;-81
2022/03/21 00:13:24;;;;;;;11.57;7.40;;;;;;;;;;6318134;22;20003;-81
2022/03/21 00:15:52;;;;;;;12.20;7.05;;;;;;;;;;6317687;22;19999;-82
2022/03/21 00:18:18;;;;;;;10.45;6.78;;;;;;;;;;6318747;22;20075;-82
2022/03/21 00:20:53;;;;;;;12.65;8.05;;;;;;;;;;6318100;22;19999;-82
2022/03/21 00:23:20;;;;;;;13.00;7.13;;;;;;;;;;6290874;22;20003;-82
2022/03/21 00:25:46;;;;;;;12.20;8.05;;;;;;;;;;6318686;22;20074;-82
2022/03/21 00:28:12;;;;;;;11.75;6.97;;;;;;;;;;6317758;22;19999;-82
2022/03/21 00:30:39;;;;;;;11.55;7.75;;;;;;;;;;6317573;22;20323;-82
2022/03/21 00:33:06;;;;;;;12.20;7.13;;;;;;;;;;6290644;22;20007;-82
2022/03/21 00:35:32;;;;;;;11.25;7.28;;;;;;;;;;6289937;22;20025;-82
2022/03/21 00:37:58;;;;;;;10.90;6.93;;;;;;;;;;6290178;22;20498;-82
2022/03/21 00:40:24;;;;;;;13.00;6.85;;;;;;;;;;6318222;22;20062;-82
2022/03/21 00:42:50;;;;;;;11.50;6.55;;;;;;;;;;6317291;22;19996;-82
2022/03/21 00:45:21;;;;;;;13.10;7.28;;;;;;;;;;6290965;22;19999;-82
2022/03/21 00:47:47;;;;;;;13.48;7.47;;;;;;;;;;6318672;22;20003;-82
2022/03/21 00:50:15;;;;;;;14.07;7.97;;;;;;;;;;6317481;22;20010;-82
2022/03/21 00:52:42;;;;;;;13.40;7.43;;;;;;;;;;6290573;22;20303;-82
2022/03/21 00:55:09;;;;;;;12.55;7.68;;;;;;;;;;6290789;22;20007;-82
2022/03/21 00:57:35;;;;;;;11.07;6.72;;;;;;;;;;6289197;22;20012;-82
2022/03/21 01:00:02;;;;;;;11.82;7.47;;;;;;;;;;6316929;22;20097;-82
2022/03/21 01:02:28;;;;;;;11.48;7.03;;;;;;;;;;6317706;22;20021;-82
2022/03/21 01:04:54;;;;;;;11.30;7.35;;;;;;;;;;6316371;22;20045;-82
2022/03/21 01:07:20;;;;;;;11.52;7.40;;;;;;;;;;6296589;22;20007;-82
2022/03/21 01:09:47;;;;;;;11.75;7.10;;;;;;;;;;6326763;22;20019;-82
2022/03/21 01:12:14;;;;;;;13.98;7.90;;;;;;;;;;6321226;22;20219;-82
2022/03/21 01:14:41;;;;;;;13.10;7.75;;;;;;;;;;6319865;22;19999;-82
2022/03/21 01:17:07;;;;;;;16.08;8.27;;;;;;;;;;6319046;22;19999;-82
2022/03/21 01:19:33;;;;;;;12.63;7.68;;;;;;;;;;6319457;22;20003;-82
2022/03/21 01:21:59;;;;;;;11.18;7.15;;;;;;;;;;6292878;22;19999;-82
2022/03/21 01:24:25;;;;;;;13.60;7.68;;;;;;;;;;6291852;22;20003;-82
2022/03/21 01:26:52;;;;;;;12.60;8.18;;;;;;;;;;6318603;22;20010;-82
2022/03/21 01:29:18;;;;;;;13.45;7.65;;;;;;;;;;6317977;22;20099;-81
2022/03/21 01:31:44;;;;;;;13.57;8.32;;;;;;;;;;6318590;22;19995;-82
2022/03/21 01:34:10;;;;;;;12.02;7.47;;;;;;;;;;6318835;22;20002;-82
2022/03/21 01:36:36;;;;;;;12.40;7.80;;;;;;;;;;6317525;22;20111;-82
2022/03/21 01:39:02;;;;;;;12.45;7.35;;;;;;;;;;6317651;22;20003;-82
2022/03/21 01:41:28;;;;;;;13.88;7.55;;;;;;;;;;6317991;22;19999;-82
2022/03/21 01:43:55;;;;;;;12.25;7.22;;;;;;;;;;6318883;22;20006;-82
2022/03/21 01:46:21;;;;;;;14.18;6.97;;;;;;;;;;6318219;22;19998;-82
2022/03/21 01:48:47;;;;;;;13.07;7.13;;;;;;;;;;6317974;22;20056;-82
2022/03/21 01:51:14;;;;;;;10.68;6.97;;;;;;;;;;6290807;22;20008;-82
2022/03/21 01:56:27;;;;;;;12.32;7.32;;;;;;;;;;6318713;22;20028;-82
2022/03/21 01:58:53;;;;;;;11.77;6.50;;;;;;;;;;6317557;22;19995;-82
2022/03/21 02:01:19;;;;;;;12.13;7.50;;;;;;;;;;6318140;22;19995;-82
2022/03/21 02:03:45;;;;;;;13.93;7.60;;;;;;;;;;6290229;22;20003;-82
2022/03/21 02:06:11;;;;;;;11.75;7.20;;;;;;;;;;6317299;22;19995;-82
2022/03/21 02:08:38;;;;;;;15.77;8.20;;;;;;;;;;6317358;22;20082;-82
2022/03/21 02:11:04;;;;;;;13.27;8.00;;;;;;;;;;6289976;22;20030;-82
2022/03/21 02:13:31;;;;;;;13.55;8.07;;;;;;;;;;6316687;22;20034;-82
2022/03/21 02:15:58;;;;;;;13.80;7.70;;;;;;;;;;6316711;22;20006;-82
2022/03/21 02:18:25;;;;;;;13.95;8.30;;;;;;;;;;6316362;22;20003;-82
2022/03/21 02:20:52;;;;;;;13.45;8.43;;;;;;;;;;6317010;22;20002;-81
2022/03/21 02:23:26;;;;;;;13.93;8.05;;;;;;;;;;6315107;22;20014;-82
2022/03/21 02:25:54;;;;;;;12.85;8.18;;;;;;;;;;6315977;22;19995;-81
2022/03/21 02:28:20;;;;;;;14.60;7.45;;;;;;;;;;6287464;22;20007;-82
2022/03/21 02:30:47;;;;;;;13.90;8.27;;;;;;;;;;6288712;22;20030;-82
2022/03/21 02:33:14;;;;;;;14.02;7.63;;;;;;;;;;6315950;22;20019;-82
2022/03/21 02:35:41;;;;;;;13.25;7.35;;;;;;;;;;6288669;22;20003;-82
2022/03/21 02:38:08;;;;;;;12.40;7.72;;;;;;;;;;6315673;22;20017;-82
2022/03/21 02:40:34;;;;;;;12.02;7.80;;;;;;;;;;6288386;22;19999;-81
2022/03/21 02:43:00;;;;;;;14.60;7.95;;;;;;;;;;6314006;22;20006;-82
2022/03/21 02:45:26;;;;;;;14.88;8.43;;;;;;;;;;6314330;22;19995;-81
2022/03/21 02:47:52;;;;;;;15.82;8.80;;;;;;;;;;6286467;22;20098;-81
2022/03/21 02:50:26;;;;;;;13.35;8.20;;;;;;;;;;6287380;22;20010;-81
2022/03/21 02:52:53;;;;;;;13.10;7.60;;;;;;;;;;6295161;22;20007;-81
2022/03/21 02:55:19;;;;;;;13.43;7.63;;;;;;;;;;6323515;22;19995;-81
2022/03/21 02:57:45;;;;;;;14.23;8.75;;;;;;;;;;6317748;22;20007;-82
2022/03/21 03:00:12;;;;;;;14.70;8.27;;;;;;;;;;6291744;22;20541;-82
2022/03/21 03:02:39;;;;;;;16.30;8.48;;;;;;;;;;6316857;22;19999;-82
2022/03/21 03:05:05;;;;;;;14.05;8.45;;;;;;;;;;6316669;22;20435;-81
2022/03/21 03:07:31;;;;;;;14.35;8.57;;;;;;;;;;6316025;22;20000;-82
2022/03/21 03:09:57;;;;;;;15.38;8.75;;;;;;;;;;6288184;22;20041;-82
2022/03/21 03:12:23;;;;;;;14.10;8.48;;;;;;;;;;6288380;22;20003;-81
2022/03/21 03:14:49;;;;;;;12.13;8.07;;;;;;;;;;6315034;22;20007;-81
2022/03/21 03:17:15;;;;;;;13.80;8.13;;;;;;;;;;6314719;22;20026;-80
2022/03/21 03:19:41;;;;;;;14.40;7.95;;;;;;;;;;6287590;22;20003;-81
2022/03/21 03:22:09;;;;;;;11.90;7.72;;;;;;;;;;6287661;22;19999;-80
2022/03/21 03:24:36;;;;;;;15.68;7.78;;;;;;;;;;6287273;22;20038;-81
2022/03/21 03:27:03;;;;;;;15.10;8.30;;;;;;;;;;6313738;22;20335;-81
2022/03/21 03:29:29;;;;;;;12.98;7.75;;;;;;;;;;6314585;22;19996;-81
2022/03/21 03:31:55;;;;;;;15.45;8.20;;;;;;;;;;6313125;22;20033;-81
2022/03/21 03:34:21;;;;;;;14.25;8.95;;;;;;;;;;6313577;22;20429;-82
2022/03/21 03:36:48;;;;;;;14.02;8.40;;;;;;;;;;6285622;22;19999;-81
2022/03/21 03:39:14;;;;;;;12.55;8.63;;;;;;;;;;6315573;22;19999;-81
2022/03/21 03:41:40;;;;;;;15.73;9.57;;;;;;;;;;6287166;22;20039;-80
2022/03/21 03:44:06;;;;;;;14.43;9.05;;;;;;;;;;6287369;22;20002;-81
2022/03/21 03:46:32;;;;;;;13.88;9.20;;;;;;;;;;6288056;22;19995;-82
2022/03/21 03:48:58;;;;;;;15.63;9.30;;;;;;;;;;6315131;22;20010;-82
2022/03/21 03:51:24;;;;;;;15.50;9.48;;;;;;;;;;6287003;22;20018;-81
2022/03/21 03:53:50;;;;;;;17.17;9.88;;;;;;;;;;6315896;22;20454;-81
2022/03/21 03:56:16;;;;;;;18.25;9.98;;;;;;;;;;6315582;22;20007;-81
2022/03/21 03:58:42;;;;;;;16.30;9.70;;;;;;;;;;6315754;22;20007;-81
2022/03/21 04:01:08;;;;;;;14.07;9.02;;;;;;;;;;6315108;22;20007;-82
2022/03/21 04:03:47;;;;;;;16.05;9.10;;;;;;;;;;6315145;22;19996;-80
2022/03/21 04:06:16;;;;;;;13.68;9.50;;;;;;;;;;6287391;22;20021;-81
2022/03/21 04:08:43;;;;;;;15.75;8.82;;;;;;;;;;6314883;22;19999;-82
2022/03/21 04:11:09;;;;;;;18.73;10.18;;;;;;;;;;6314367;22;19995;-80
2022/03/21 04:13:35;;;;;;;18.88;10.13;;;;;;;;;;6285980;22;20082;-80
2022/03/21 04:16:01;;;;;;;17.85;10.55;;;;;;;;;;6314091;22;20011;-81
2022/03/21 04:18:27;;;;;;;18.85;10.70;;;;;;;;;;6313059;22;20034;-81
2022/03/21 04:20:54;;;;;;;20.45;11.48;;;;;;;;;;6312796;22;19999;-82
2022/03/21 04:23:20;;;;;;;17.63;10.57;;;;;;;;;;6315701;22;20010;-81
2022/03/21 04:25:47;;;;;;;17.23;11.57;;;;;;;;;;6313433;22;20019;-80
2022/03/21 04:28:17;;;;;;;18.70;11.40;;;;;;;;;;6284486;22;20003;-80
2022/03/21 04:30:43;;;;;;;19.15;11.40;;;;;;;;;;6312034;22;20014;-80
2022/03/21 04:33:10;;;;;;;19.95;10.93;;;;;;;;;;6284679;22;20030;-81
2022/03/21 04:35:37;;;;;;;19.33;11.85;;;;;;;;;;6312544;22;20066;-81
2022/03/21 04:38:03;;;;;;;20.52;11.05;;;;;;;;;;6283803;22;20007;-81
2022/03/21 04:40:30;;;;;;;18.17;10.65;;;;;;;;;;6312970;22;20002;-80
2022/03/21 04:42:56;;;;;;;20.95;10.80;;;;;;;;;;6311838;22;20006;-81
2022/03/21 04:45:22;;;;;;;20.80;11.75;;;;;;;;;;6311830;22;19991;-81
2022/03/21 04:47:48;;;;;;;23.40;12.68;;;;;;;;;;6311833;22;20007;-81
2022/03/21 04:50:14;;;;;;;17.58;11.15;;;;;;;;;;6311163;22;20006;-81
2022/03/21 04:52:40;;;;;;;20.38;11.88;;;;;;;;;;6286212;22;20469;-82
2022/03/21 04:55:07;;;;;;;16.25;11.45;;;;;;;;;;6313267;22;19999;-81
2022/03/21 04:57:34;;;;;;;27.70;12.73;;;;;;;;;;6314507;22;20148;-82
2022/03/21 05:00:00;;;;;;;21.30;12.55;;;;;;;;;;6312232;22;19999;-81
2022/03/21 05:02:26;;;;;;;21.73;12.10;;;;;;;;;;6284058;22;20067;-81
2022/03/21 05:04:52;;;;;;;20.50;12.25;;;;;;;;;;6283940;22;20007;-81
2022/03/21 05:07:19;;;;;;;24.67;12.63;;;;;;;;;;6285011;22;20007;-82
2022/03/21 05:09:45;;;;;;;21.05;12.52;;;;;;;;;;6312221;22;19999;-82
2022/03/21 05:12:12;;;;;;;20.30;11.65;;;;;;;;;;6282902;22;20439;-81
2022/03/21 05:14:38;;;;;;;26.55;14.68;;;;;;;;;;6313794;22;20063;-81
2022/03/21 05:17:05;;;;;;;20.30;11.77;;;;;;;;;;6312332;22;20080;-81
2022/03/21 05:19:34;;;;;;;21.10;13.10;;;;;;;;;;6312018;22;20003;-80
2022/03/21 05:22:00;;;;;;;25.10;14.98;;;;;;;;;;6282547;22;20002;-80
2022/03/21 05:32:40;;;;;;;29.65;15.70;;;;;;;;;;6311082;22;20359;-81
2022/03/21 05:37:51;;;;;;;28.05;15.98;;;;;;;;;;6313583;22;20041;-81
2022/03/21 05:40:34;;;;;;;23.42;15.02;;;;;;;;;;6312102;22;20203;-82
2022/03/21 05:43:00;;;;;;;20.80;13.57;;;;;;;;;;6308440;22;20339;-79
2022/03/21 05:45:28;;;;;;;27.27;13.43;;;;;;;;;;6309914;22;20074;-81
2022/03/21 05:50:39;;;;;;;19.77;12.40;;;;;;;;;;6308593;22;20014;-82
2022/03/21 05:53:09;;;;;;;20.38;14.40;;;;;;;;;;6309572;22;20034;-82
2022/03/21 05:55:35;;;;;;;19.65;14.27;;;;;;;;;;6282496;22;20061;-80
2022/03/21 05:58:01;;;;;;;20.55;13.20;;;;;;;;;;6308117;22;20018;-82
2022/03/21 06:00:28;;;;;;;22.20;14.82;;;;;;;;;;6310069;22;20002;-84
2022/03/21 06:02:54;;;;;;;23.20;15.60;;;;;;;;;;6312805;22;19999;-83
2022/03/21 06:05:21;;;;;;;21.50;13.65;;;;;;;;;;6312902;22;20415;-83
2022/03/21 06:07:47;;;;;;;26.13;14.55;;;;;;;;;;6284773;22;20346;-81
2022/03/21 06:10:14;;;;;;;20.67;14.23;;;;;;;;;;6312035;22;20006;-83
2022/03/21 06:12:40;;;;;;;17.42;13.13;;;;;;;;;;6311647;22;20512;-82
2022/03/21 06:15:07;;;;;;;19.60;13.57;;;;;;;;;;6312301;22;20006;-84
2022/03/21 06:17:38;;;;;;;22.38;13.15;;;;;;;;;;6312009;22;20025;-83
2022/03/21 06:20:06;;;;;;;18.83;12.65;;;;;;;;;;6312025;22;19995;-82
2022/03/21 06:22:32;;;;;;;23.50;14.32;;;;;;;;;;6287709;22;20000;-81
2022/03/21 06:24:58;;;;;;;21.92;13.05;;;;;;;;;;6329075;22;20110;-80
2022/03/21 06:27:24;;;;;;;23.02;14.45;;;;;;;;;;6299715;22;19999;-82
2022/03/21 06:29:50;;;;;;;22.65;15.13;;;;;;;;;;6326780;22;20029;-81
2022/03/21 06:32:16;;;;;;;18.27;12.68;;;;;;;;;;6327485;22;20010;-80
2022/03/21 06:34:42;;;;;;;18.30;12.05;;;;;;;;;;6323929;22;20001;-80
2022/03/21 06:37:09;;;;;;;19.75;13.75;;;;;;;;;;6313083;22;19999;-82
2022/03/21 06:39:35;;;;;;;21.55;13.18;;;;;;;;;;6285331;22;20007;-81
2022/03/21 06:42:02;;;;;;;23.45;14.38;;;;;;;;;;6284412;22;19999;-80
2022/03/21 06:44:28;;;;;;;18.60;13.63;;;;;;;;;;6312437;22;19991;-80
2022/03/21 06:46:56;;;;;;;18.58;12.02;;;;;;;;;;6312521;22;20005;-82
2022/03/21 06:49:27;;;;;;;18.98;12.70;;;;;;;;;;6311624;22;19999;-82
2022/03/21 06:51:53;;;;;;;17.90;12.63;;;;;;;;;;6312560;22;19999;-84
2022/03/21 06:54:19;;;;;;;18.65;13.20;;;;;;;;;;6312299;22;20029;-83
2022/03/21 06:56:45;;;;;;;24.23;13.75;;;;;;;;;;6285401;22;20355;-82
2022/03/21 06:59:12;;;;;;;20.15;13.82;;;;;;;;;;6300137;22;20015;-80
2022/03/21 07:01:38;;;;;;;17.17;12.82;;;;;;;;;;6303574;22;20006;-82
2022/03/21 07:04:04;;;;;;;18.80;12.07;;;;;;;;;;6302118;22;20038;-80
2022/03/21 07:06:30;;;;;;;18.33;12.15;;;;;;;;;;6327740;22;20002;-83
2022/03/21 07:08:57;;;;;;;17.60;12.13;;;;;;;;;;6285672;22;20006;-82
2022/03/21 07:11:23;;;;;;;19.25;12.20;;;;;;;;;;6312850;22;19999;-82
2022/03/21 07:13:49;;;;;;;17.27;12.18;;;;;;;;;;6312589;22;20075;-84
2022/03/21 07:16:16;;;;;;;17.70;12.05;;;;;;;;;;6313666;22;20003;-82
2022/03/21 07:18:45;;;;;;;19.35;12.52;;;;;;;;;;6314478;22;20027;-83
2022/03/21 07:21:13;;;;;;;20.13;12.68;;;;;;;;;;6285893;22;20064;-84
2022/03/21 07:23:39;;;;;;;16.45;12.05;;;;;;;;;;6314174;22;20054;-83
2022/03/21 07:26:05;;;;;;;17.17;11.77;;;;;;;;;;6285592;22;19999;-82
2022/03/21 07:28:31;;;;;;;16.30;11.88;;;;;;;;;;6286652;22;20378;-81
2022/03/21 07:30:57;;;;;;;18.23;11.38;;;;;;;;;;6313306;22;20026;-84
2022/03/21 07:33:24;;;;;;;15.27;11.27;;;;;;;;;;6313087;22;20348;-82
2022/03/21 07:35:50;;;;;;;18.45;12.27;;;;;;;;;;6314119;22;19999;-83
2022/03/21 07:38:19;;;;;;;15.75;11.13;;;;;;;;;;6312839;22;20048;-84
2022/03/21 07:40:48;;;;;;;17.85;11.45;;;;;;;;;;6312319;22;20027;-82
2022/03/21 07:43:15;;;;;;;16.50;10.98;;;;;;;;;;6313678;22;20435;-83
2022/03/21 07:48:27;;;;;;;15.10;12.02;;;;;;;;;;6314280;22;20038;-82
2022/03/21 07:50:54;;;;;;;16.85;11.65;;;;;;;;;;6286775;22;20057;-83
2022/03/21 07:53:20;;;;;;;16.55;11.32;;;;;;;;;;6312613;22;20010;-84
2022/03/21 07:55:46;;;;;;;16.45;10.50;;;;;;;;;;6288643;22;19999;-82
2022/03/21 07:58:12;;;;;;;16.38;11.35;;;;;;;;;;6288576;22;20015;-81
2022/03/21 08:00:38;;;;;;;14.88;10.00;;;;;;;;;;6315768;22;20069;-82
2022/03/21 08:03:05;;;;;;;15.23;11.10;;;;;;;;;;6316295;22;20070;-83
2022/03/21 08:05:31;;;;;;;15.98;10.93;;;;;;;;;;6316642;22;19999;-82
2022/03/21 08:07:57;;;;;;;13.95;9.80;;;;;;;;;;6291986;22;20003;-84
2022/03/21 08:10:24;;;;;;;11.95;9.48;;;;;;;;;;6288764;22;20003;-85
2022/03/21 08:12:50;;;;;;;18.80;10.90;;;;;;;;;;6316265;22;20057;-82
2022/03/21 08:15:17;;;;;;;17.02;10.15;;;;;;;;;;6315516;22;20019;-82
2022/03/21 08:17:50;;;;;;;16.95;9.70;;;;;;;;;;6315398;22;20035;-83
2022/03/21 08:20:18;;;;;;;15.90;9.15;;;;;;;;;;6284706;22;20003;-83
2022/03/21 08:22:44;;;;;;;15.35;9.32;;;;;;;;;;6286169;22;20060;-82
2022/03/21 08:25:10;;;;;;;13.68;9.70;;;;;;;;;;6313166;22;19995;-83
2022/03/21 08:27:36;;;;;;;16.30;9.48;;;;;;;;;;6313253;22;20022;-82
2022/03/21 08:30:03;;;;;;;13.88;9.05;;;;;;;;;;6286094;22;20014;-82
2022/03/21 08:32:29;;;;;;;15.43;9.27;;;;;;;;;;6313433;22;20056;-84
2022/03/21 08:34:55;;;;;;;13.25;8.93;;;;;;;;;;6285555;22;20010;-83
2022/03/21 08:37:25;;;;;;;15.10;10.15;;;;;;;;;;6313500;22;20000;-83
2022/03/21 08:39:51;;;;;;;12.27;9.13;;;;;;;;;;6312968;22;20078;-81
2022/03/21 08:42:17;;;;;;;13.57;8.75;;;;;;;;;;6313265;22;19999;-85
2022/03/21 08:44:43;;;;;;;13.45;8.80;;;;;;;;;;6313217;22;19995;-83
2022/03/21 08:47:09;;;;;;;11.90;7.80;;;;;;;;;;6285285;22;19999;-83
2022/03/21 08:49:37;;;;;;;12.75;9.60;;;;;;;;;;6312431;22;20082;-82
2022/03/21 08:55:26;;;;;;;12.48;8.48;;;;;;;;;;6313401;22;20049;-86
2022/03/21 08:57:52;;;;;;;14.07;9.00;;;;;;;;;;6312202;22;20011;-83
2022/03/21 09:00:18;;;;;;;13.80;8.10;;;;;;;;;;6285643;22;20007;-83
2022/03/21 09:02:46;;;;;;;12.65;8.25;;;;;;;;;;6312558;22;20004;-84
2022/03/21 09:05:14;;;;;;;16.88;8.77;;;;;;;;;;6313406;22;20030;-83
2022/03/21 09:07:40;;;;;;;12.73;8.57;;;;;;;;;;6312951;22;20030;-81
2022/03/21 09:10:07;;;;;;;14.45;8.60;;;;;;;;;;6313997;22;20021;-83
2022/03/21 09:12:33;;;;;;;16.40;9.23;;;;;;;;;;6285333;22;20439;-83
2022/03/21 09:15:00;;;;;;;13.68;8.95;;;;;;;;;;6312643;22;19999;-83
2022/03/21 09:17:28;;;;;;;13.18;8.70;;;;;;;;;;6312802;22;20051;-84
2022/03/21 09:19:54;;;;;;;13.20;8.48;;;;;;;;;;6311736;22;19995;-84
2022/03/21 09:22:20;;;;;;;12.82;9.27;;;;;;;;;;6312315;22;20095;-83
2022/03/21 09:24:46;;;;;;;12.57;8.07;;;;;;;;;;6314198;22;20073;-83
2022/03/21 09:27:12;;;;;;;11.77;8.32;;;;;;;;;;6311908;22;20431;-83
2022/03/21 09:29:39;;;;;;;14.48;7.78;;;;;;;;;;6312149;22;20010;-85
2022/03/21 09:32:06;;;;;;;12.48;7.70;;;;;;;;;;6284776;22;20006;-83
2022/03/21 09:34:33;;;;;;;14.45;8.88;;;;;;;;;;6312066;22;19995;-84
2022/03/21 09:37:00;;;;;;;12.55;8.55;;;;;;;;;;6311465;22;20096;-82
2022/03/21 09:39:26;;;;;;;12.50;8.27;;;;;;;;;;6313661;22;20003;-83
2022/03/21 09:41:53;;;;;;;12.75;7.75;;;;;;;;;;6313181;22;20506;-81
2022/03/21 09:44:19;;;;;;;12.68;8.52;;;;;;;;;;6313982;22;20330;-81
2022/03/21 09:46:46;;;;;;;15.10;9.00;;;;;;;;;;6286561;22;19999;-81
2022/03/21 09:49:15;;;;;;;12.02;8.40;;;;;;;;;;6313280;22;19999;-81
2022/03/21 09:51:41;;;;;;;12.57;8.90;;;;;;;;;;6311766;22;20011;-81
2022/03/21 09:54:07;;;;;;;13.77;8.63;;;;;;;;;;6311182;22;19999;-80
2022/03/21 09:56:33;;;;;;;10.95;7.63;;;;;;;;;;6312139;22;20053;-84
2022/03/21 09:58:59;;;;;;;12.75;7.55;;;;;;;;;;6311885;22;20010;-82
2022/03/21 10:01:36;;;;;;;13.98;8.10;;;;;;;;;;6311314;22;20006;-83
2022/03/21 10:04:04;;;;;;;12.02;8.82;;;;;;;;;;6311899;22;20000;-82
2022/03/21 10:06:33;;;;;;;12.63;8.43;;;;;;;;;;6311835;22;20002;-82
2022/03/21 10:09:09;;;;;;;12.15;8.57;;;;;;;;;;6311882;22;20004;-82
2022/03/21 10:11:36;;;;;;;13.18;8.93;;;;;;;;;;6284737;22;20014;-82
2022/03/21 10:14:25;;;;;;;11.88;7.93;;;;;;;;;;6312215;22;20000;-81
2022/03/21 10:16:52;;;;;;;15.48;8.20;;;;;;;;;;6313104;22;20011;-82
2022/03/21 10:19:18;;;;;;;11.10;7.65;;;;;;;;;;6312187;22;20078;-83
2022/03/21 10:21:59;;;;;;;12.13;7.43;;;;;;;;;;6310854;22;20435;-83
2022/03/21 10:24:25;;;;;;;12.23;7.88;;;;;;;;;;6311980;22;20022;-82
2022/03/21 10:26:51;;;;;;;11.30;6.95;;;;;;;;;;6283844;22;20435;-84
2022/03/21 10:29:17;;;;;;;12.50;7.65;;;;;;;;;;6312366;22;19999;-83
2022/03/21 10:31:45;;;;;;;11.02;7.25;;;;;;;;;;6283636;22;20013;-83
2022/03/21 10:34:12;;;;;;;11.45;7.75;;;;;;;;;;6312042;22;20010;-83
2022/03/21 10:36:57;;;;;;;11.60;7.45;;;;;;;;;;6311059;22;20007;-83
2022/03/21 10:39:23;;;;;;;11.23;7.15;;;;;;;;;;6311435;22;20010;-83
2022/03/21 10:41:54;;;;;;;12.38;8.15;;;;;;;;;;6311978;22;20007;-84
2022/03/21 10:44:20;;;;;;;12.32;7.88;;;;;;;;;;6310626;22;20029;-81
2022/03/21 10:46:51;;;;;;;14.20;7.88;;;;;;;;;;6284271;22;20014;-82
2022/03/21 10:49:25;;;;;;;11.82;7.28;;;;;;;;;;6311133;22;20018;-84
2022/03/21 10:51:54;;;;;;;9.70;7.15;;;;;;;;;;6310776;22;19995;-84
2022/03/21 10:54:38;;;;;;;11.60;7.70;;;;;;;;;;6284112;22;20019;-83
2022/03/21 10:57:05;;;;;;;10.63;7.38;;;;;;;;;;6284612;22;20047;-83
2022/03/21 10:59:32;;;;;;;12.10;7.45;;;;;;;;;;6311956;22;20017;-83
2022/03/21 11:02:12;;;;;;;11.90;7.25;;;;;;;;;;6311527;22;19999;-83
2022/03/21 11:04:38;;;;;;;12.35;7.38;;;;;;;;;;6311479;22;20078;-81
2022/03/21 11:07:05;;;;;;;10.77;7.30;;;;;;;;;;6312454;22;20018;-83
2022/03/21 11:09:32;;;;;;;12.75;7.75;;;;;;;;;;6311713;22;20002;-81
2022/03/21 11:11:59;;;;;;;12.15;7.43;;;;;;;;;;6311182;22;20316;-80
2022/03/21 11:14:25;;;;;;;11.25;6.45;;;;;;;;;;6311241;22;19999;-81
2022/03/21 11:16:53;;;;;;;9.45;6.15;;;;;;;;;;6312223;22;19996;-83
2022/03/21 11:19:19;;;;;;;10.88;6.88;;;;;;;;;;6311216;22;20077;-83
2022/03/21 11:21:46;;;;;;;9.80;7.22;;;;;;;;;;6311848;22;20003;-82
2022/03/21 11:24:12;;;;;;;11.65;6.80;;;;;;;;;;6311241;22;20000;-82
2022/03/21 11:26:51;;;;;;;13.15;7.63;;;;;;;;;;6311795;22;20361;-81
2022/03/21 11:29:49;;;;;;;14.30;7.38;;;;;;;;;;6284105;22;20021;-81
2022/03/21 11:32:34;;;;;;;11.52;7.20;;;;;;;;;;6157115;23;20017;-83
2022/03/21 11:35:06;;;;;;;10.95;7.13;;;;;;;;;;6156766;23;20012;-83
2022/03/21 11:37:33;;;;;;;11.88;7.30;;;;;;;;;;6132531;23;20481;-80
2022/03/21 11:40:18;;;;;;;12.55;8.93;;;;;;;;;;6158192;23;20013;-82
2022/03/21 11:42:44;;;;;;;12.75;7.43;;;;;;;;;;6131964;23;20076;-83
2022/03/21 11:45:23;;;;;;;11.38;6.93;;;;;;;;;;6155381;23;20010;-83
2022/03/21 11:47:49;;;;;;;14.55;8.80;;;;;;;;;;6156794;23;20010;-81
2022/03/21 11:50:28;;;;;;;10.95;7.40;;;;;;;;;;6156029;23;20006;-81
2022/03/21 11:53:13;;;;;;;11.75;7.93;;;;;;;;;;6155862;23;20045;-82
2022/03/21 11:55:42;;;;;;;10.52;7.07;;;;;;;;;;6132157;23;20009;-80
2022/03/21 11:58:24;;;;;;;10.55;7.15;;;;;;;;;;6156009;23;20029;-83
2022/03/21 12:01:07;;;;;;;11.18;7.53;;;;;;;;;;6132947;23;20026;-81
2022/03/21 12:03:34;;;;;;;11.10;7.07;;;;;;;;;;6159006;23;20033;-81
2022/03/21 12:06:18;;;;;;;10.05;7.10;;;;;;;;;;6134403;23;20560;-84
2022/03/21 12:08:45;;;;;;;11.30;7.32;;;;;;;;;;6291863;22;20011;-81
2022/03/21 12:11:31;;;;;;;11.60;7.45;;;;;;;;;;6314346;22;20006;-83
2022/03/21 12:14:16;;;;;;;11.35;7.75;;;;;;;;;;6313048;22;20003;-81
2022/03/21 12:16:42;;;;;;;10.65;7.38;;;;;;;;;;6285784;22;20011;-83
2022/03/21 12:19:08;;;;;;;11.23;6.18;;;;;;;;;;6312291;22;20003;-81
2022/03/21 12:21:34;;;;;;;10.35;6.72;;;;;;;;;;6313784;22;20432;-82
2022/03/21 12:24:18;;;;;;;11.60;7.47;;;;;;;;;;6310870;22;20003;-83
2022/03/21 12:26:48;;;;;;;12.05;7.80;;;;;;;;;;6312276;22;20007;-82
2022/03/21 12:29:44;;;;;;;10.93;7.32;;;;;;;;;;6311622;22;20010;-83
2022/03/21 12:32:23;;;;;;;9.90;6.82;;;;;;;;;;6264539;22;20082;-83
2022/03/21 12:34:49;;;;;;;10.43;7.47;;;;;;;;;;6284753;22;20100;-83
2022/03/21 12:37:30;;;;;;;12.68;7.95;;;;;;;;;;6311894;22;20003;-83
2022/03/21 12:39:58;;;;;;;11.65;7.65;;;;;;;;;;6312235;22;19999;-83
2022/03/21 12:42:27;;;;;;;11.52;6.60;;;;;;;;;;6313519;22;19995;-82
2022/03/21 12:44:53;;;;;;;11.80;7.57;;;;;;;;;;6310888;22;20003;-82
2022/03/21 12:47:21;;;;;;;10.20;6.88;;;;;;;;;;6311639;22;20002;-83
2022/03/21 12:49:50;;;;;;;11.27;6.80;;;;;;;;;;6311816;22;20026;-83
2022/03/21 12:52:30;;;;;;;9.85;7.05;;;;;;;;;;6312995;22;20026;-83
2022/03/21 12:54:57;;;;;;;10.70;7.75;;;;;;;;;;6312725;22;19996;-82
2022/03/21 12:57:23;;;;;;;11.77;7.63;;;;;;;;;;6311615;22;20031;-80
2022/03/21 12:59:49;;;;;;;11.27;7.75;;;;;;;;;;6312904;22;20481;-83
2022/03/21 13:02:24;;;;;;;9.13;6.82;;;;;;;;;;6284642;22;20094;-83
2022/03/21 13:10:33;;;;;;;11.50;7.45;;;;;;;;;;6311579;22;20018;-84
2022/03/21 13:13:03;;;;;;;13.63;7.57;;;;;;;;;;6312516;22;20034;-82
2022/03/21 13:15:29;;;;;;;9.75;6.97;;;;;;;;;;6312295;22;20010;-83
2022/03/21 13:18:03;;;;;;;10.75;7.40;;;;;;;;;;6313071;22;20078;-84
2022/03/21 13:20:45;;;;;;;11.75;6.75;;;;;;;;;;6284381;22;20003;-85
2022/03/21 13:23:12;;;;;;;10.32;6.93;;;;;;;;;;6313111;22;19995;-84
2022/03/21 13:25:39;;;;;;;10.57;7.32;;;;;;;;;;6313351;22;20006;-83
2022/03/21 13:28:15;;;;;;;9.88;6.90;;;;;;;;;;6312902;22;20077;-84
2022/03/21 13:30:58;;;;;;;10.38;7.20;;;;;;;;;;6285736;22;20007;-84
2022/03/21 13:33:26;;;;;;;;;;;;;;;;;;6306613;22;20027;-80
2022/03/21 13:35:53;;;;;;;12.02;7.32;;;;;;;;;;6331809;22;19943;-82
2022/03/21 13:38:22;;;;;;;10.15;7.00;;;;;;;;;;6334544;22;20011;-79
2022/03/21 13:40:48;;;;;;;13.48;6.95;;;;;;;;;;6302243;22;20301;-84
2022/03/21 13:43:16;;;;;;;11.43;6.80;;;;;;;;;;6324277;22;19999;-84
2022/03/21 13:45:42;;;;;;;11.88;6.68;;;;;;;;;;6289772;22;20362;-84
2022/03/21 13:48:08;;;;;;;11.10;7.78;;;;;;;;;;6286674;22;20199;-85
2022/03/21 13:50:38;;;;;;;12.00;7.40;;;;;;;;;;6313532;22;19999;-83
2022/03/21 13:53:06;;;;;;;10.82;7.35;;;;;;;;;;6287741;22;20544;-83
2022/03/21 13:55:32;;;;;;;11.88;7.03;;;;;;;;;;6315286;22;19995;-82
2022/03/21 13:58:00;;;;;;;11.15;6.70;;;;;;;;;;6314461;22;20062;-85
2022/03/21 14:00:30;;;;;;;10.25;6.40;;;;;;;;;;6285924;22;20014;-83
2022/03/21 14:02:57;;;;;;;9.63;6.10;;;;;;;;;;6312844;22;19999;-84
2022/03/21 14:05:33;;;;;;;10.68;6.63;;;;;;;;;;6315984;22;20003;-84
2022/03/21 14:08:14;;;;;;;11.63;7.53;;;;;;;;;;6332043;22;19999;-80
2022/03/21 14:10:41;;;;;;;11.15;6.70;;;;;;;;;;6329975;22;20007;-84
2022/03/21 14:13:23;;;;;;;10.32;6.80;;;;;;;;;;6332867;22;20003;-84
2022/03/21 14:15:50;;;;;;;10.17;7.20;;;;;;;;;;6291308;22;20010;-82
2022/03/21 14:18:23;;;;;;;12.50;7.35;;;;;;;;;;6312744;22;20252;-83
2022/03/21 14:20:50;;;;;;;11.63;7.20;;;;;;;;;;6285481;22;20033;-84
2022/03/21 14:23:16;;;;;;;11.05;6.80;;;;;;;;;;6313321;22;19995;-85
2022/03/21 14:28:27;;;;;;;9.35;6.55;;;;;;;;;;6312411;22;20092;-83
2022/03/21 14:30:53;;;;;;;8.75;5.72;;;;;;;;;;6284667;22;20004;-85
2022/03/21 14:33:19;;;;;;;10.02;5.63;;;;;;;;;;6313515;22;20003;-83
2022/03/21 14:35:45;;;;;;;11.50;6.03;;;;;;;;;;6311868;22;20022;-83
2022/03/21 14:38:11;;;;;;;10.52;6.47;;;;;;;;;;6313161;22;20003;-84
2022/03/21 14:40:37;;;;;;;11.00;6.63;;;;;;;;;;6312829;22;20056;-83
2022/03/21 14:43:06;;;;;;;11.57;6.63;;;;;;;;;;6313642;22;19995;-83
2022/03/21 14:45:33;;;;;;;12.85;7.13;;;;;;;;;;6312917;22;19995;-83
2022/03/21 14:47:59;;;;;;;9.60;6.03;;;;;;;;;;6285260;22;20007;-83
2022/03/21 14:50:25;;;;;;;9.93;6.70;;;;;;;;;;6314306;22;20007;-84
2022/03/21 14:52:51;;;;;;;13.27;6.78;;;;;;;;;;6312947;22;20435;-82
2022/03/21 14:55:17;;;;;;;13.98;6.85;;;;;;;;;;6313238;22;20006;-83
2022/03/21 14:57:43;;;;;;;11.95;6.80;;;;;;;;;;6285501;22;20039;-84
2022/03/21 15:00:11;;;;;;;11.15;6.50;;;;;;;;;;6313719;22;20022;-85
2022/03/21 15:02:37;;;;;;;11.48;6.10;;;;;;;;;;6286284;22;20007;-83
2022/03/21 15:05:04;;;;;;;9.10;6.32;;;;;;;;;;6314201;22;19996;-84